sensor_id;sensor_type;location;lat;lon;timestamp;temperature;humidity
3770;DHT22;1900;48.890;9.190;2023-02-26T00:00:59;7.50;51.50
3770;DHT22;1900;48.890;9.190;2023-02-26T00:03:25;7.50;51.40
3770;DHT22;1900;48.890;9.190;2023-02-26T00:05:50;7.50;51.60
3770;DHT22;1900;48.890;9.190;2023-02-26T00:08:16;7.50;51.40
3770;DHT22;1900;48.890;9.190;2023-02-26T00:10:42;7.50;51.40
3770;DHT22;1900;48.890;9.190;2023-02-26T00:13:10;7.50;51.40
3770;DHT22;1900;48.890;9.190;2023-02-26T00:15:36;7.40;51.40
3770;DHT22;1900;48.890;9.190;2023-02-26T00:18:07;7.40;51.40
3770;DHT22;1900;48.890;9.190;2023-02-26T00:20:35;7.40;51.40
3770;DHT22;1900;48.890;9.190;2023-02-26T00:23:01;7.40;51.50
3770;DHT22;1900;48.890;9.190;2023-02-26T00:25:27;7.40;51.40
3770;DHT22;1900;48.890;9.190;2023-02-26T00:27:53;7.40;51.30
3770;DHT22;1900;48.890;9.190;2023-02-26T00:30:19;7.40;51.20
3770;DHT22;1900;48.890;9.190;2023-02-26T00:32:45;7.30;51.10
3770;DHT22;1900;48.890;9.190;2023-02-26T00:35:13;7.30;51.20
3770;DHT22;1900;48.890;9.190;2023-02-26T00:42:50;7.30;51.20
3770;DHT22;1900;48.890;9.190;2023-02-26T00:45:16;7.30;51.20
3770;DHT22;1900;48.890;9.190;2023-02-26T00:50:17;7.20;51.10
3770;DHT22;1900;48.890;9.190;2023-02-26T00:53:14;7.20;51.10
3770;DHT22;1900;48.890;9.190;2023-02-26T00:55:42;7.20;51.10
3770;DHT22;1900;48.890;9.190;2023-02-26T00:58:08;7.20;51.20
3770;DHT22;1900;48.890;9.190;2023-02-26T01:00:34;7.20;51.10
3770;DHT22;1900;48.890;9.190;2023-02-26T01:03:01;7.20;51.20
3770;DHT22;1900;48.890;9.190;2023-02-26T01:05:28;7.20;51.30
3770;DHT22;1900;48.890;9.190;2023-02-26T01:08:11;7.20;51.30
3770;DHT22;1900;48.890;9.190;2023-02-26T01:10:39;7.20;51.20
3770;DHT22;1900;48.890;9.190;2023-02-26T01:13:05;7.20;51.20
3770;DHT22;1900;48.890;9.190;2023-02-26T01:15:31;7.20;51.20
3770;DHT22;1900;48.890;9.190;2023-02-26T01:18:04;7.20;51.20
3770;DHT22;1900;48.890;9.190;2023-02-26T01:20:37;7.20;51.20
3770;DHT22;1900;48.890;9.190;2023-02-26T01:23:14;7.20;51.20
3770;DHT22;1900;48.890;9.190;2023-02-26T01:25:54;7.20;51.10
3770;DHT22;1900;48.890;9.190;2023-02-26T01:28:22;7.20;51.10
3770;DHT22;1900;48.890;9.190;2023-02-26T01:30:50;7.10;51.00
3770;DHT22;1900;48.890;9.190;2023-02-26T01:33:31;7.10;50.80
3770;DHT22;1900;48.890;9.190;2023-02-26T01:36:21;7.10;50.70
3770;DHT22;1900;48.890;9.190;2023-02-26T01:39:27;7.00;50.60
3770;DHT22;1900;48.890;9.190;2023-02-26T01:42:00;7.00;50.60
3770;DHT22;1900;48.890;9.190;2023-02-26T01:47:26;6.90;50.70
3770;DHT22;1900;48.890;9.190;2023-02-26T01:49:53;6.90;50.70
3770;DHT22;1900;48.890;9.190;2023-02-26T01:54:57;6.80;50.50
3770;DHT22;1900;48.890;9.190;2023-02-26T01:57:23;6.80;50.50
3770;DHT22;1900;48.890;9.190;2023-02-26T01:59:50;6.70;50.40
3770;DHT22;1900;48.890;9.190;2023-02-26T02:02:19;6.70;50.30
3770;DHT22;1900;48.890;9.190;2023-02-26T02:04:47;6.70;50.40
3770;DHT22;1900;48.890;9.190;2023-02-26T02:07:14;6.60;50.30
3770;DHT22;1900;48.890;9.190;2023-02-26T02:09:40;6.60;50.40
3770;DHT22;1900;48.890;9.190;2023-02-26T02:12:34;6.60;50.40
3770;DHT22;1900;48.890;9.190;2023-02-26T02:20:44;6.50;50.50
3770;DHT22;1900;48.890;9.190;2023-02-26T02:23:31;6.50;50.50
3770;DHT22;1900;48.890;9.190;2023-02-26T02:34:51;6.50;50.40
3770;DHT22;1900;48.890;9.190;2023-02-26T02:39:56;6.40;50.30
3770;DHT22;1900;48.890;9.190;2023-02-26T02:42:34;6.40;50.30
3770;DHT22;1900;48.890;9.190;2023-02-26T02:45:08;6.40;50.30
3770;DHT22;1900;48.890;9.190;2023-02-26T02:47:38;6.30;50.10
3770;DHT22;1900;48.890;9.190;2023-02-26T02:50:16;6.30;50.20
3770;DHT22;1900;48.890;9.190;2023-02-26T02:52:56;6.30;50.20
3770;DHT22;1900;48.890;9.190;2023-02-26T02:55:36;6.30;50.20
3770;DHT22;1900;48.890;9.190;2023-02-26T02:58:08;6.30;50.30
3770;DHT22;1900;48.890;9.190;2023-02-26T03:00:39;6.30;50.30
3770;DHT22;1900;48.890;9.190;2023-02-26T03:03:34;6.30;50.30
3770;DHT22;1900;48.890;9.190;2023-02-26T03:06:02;6.30;50.30
3770;DHT22;1900;48.890;9.190;2023-02-26T03:08:32;6.20;50.80
3770;DHT22;1900;48.890;9.190;2023-02-26T03:10:59;6.20;50.80
3770;DHT22;1900;48.890;9.190;2023-02-26T03:13:25;6.20;50.20
3770;DHT22;1900;48.890;9.190;2023-02-26T03:16:10;6.20;50.20
3770;DHT22;1900;48.890;9.190;2023-02-26T03:26:38;6.20;50.20
3770;DHT22;1900;48.890;9.190;2023-02-26T03:31:51;6.20;50.20
3770;DHT22;1900;48.890;9.190;2023-02-26T03:37:05;6.20;50.20
3770;DHT22;1900;48.890;9.190;2023-02-26T03:39:42;6.20;50.20
3770;DHT22;1900;48.890;9.190;2023-02-26T03:42:17;6.20;50.20
3770;DHT22;1900;48.890;9.190;2023-02-26T03:47:25;6.10;50.20
3770;DHT22;1900;48.890;9.190;2023-02-26T03:50:07;6.10;50.20
3770;DHT22;1900;48.890;9.190;2023-02-26T03:52:47;6.20;50.40
3770;DHT22;1900;48.890;9.190;2023-02-26T03:55:40;6.10;50.30
3770;DHT22;1900;48.890;9.190;2023-02-26T03:58:31;6.10;50.10
3770;DHT22;1900;48.890;9.190;2023-02-26T04:01:34;6.10;50.10
3770;DHT22;1900;48.890;9.190;2023-02-26T04:04:09;6.10;50.10
3770;DHT22;1900;48.890;9.190;2023-02-26T04:06:36;6.10;50.10
3770;DHT22;1900;48.890;9.190;2023-02-26T04:09:03;6.10;50.10
3770;DHT22;1900;48.890;9.190;2023-02-26T04:11:33;6.10;50.10
3770;DHT22;1900;48.890;9.190;2023-02-26T04:13:59;6.00;50.00
3770;DHT22;1900;48.890;9.190;2023-02-26T04:16:26;6.00;50.00
3770;DHT22;1900;48.890;9.190;2023-02-26T04:18:51;6.00;50.00
3770;DHT22;1900;48.890;9.190;2023-02-26T04:21:20;6.00;50.00
3770;DHT22;1900;48.890;9.190;2023-02-26T04:23:46;6.00;50.00
3770;DHT22;1900;48.890;9.190;2023-02-26T04:26:12;6.00;50.00
3770;DHT22;1900;48.890;9.190;2023-02-26T04:28:40;6.00;50.00
3770;DHT22;1900;48.890;9.190;2023-02-26T04:31:06;5.90;49.90
3770;DHT22;1900;48.890;9.190;2023-02-26T04:33:32;5.90;49.80
3770;DHT22;1900;48.890;9.190;2023-02-26T04:35:59;5.90;49.80
3770;DHT22;1900;48.890;9.190;2023-02-26T04:38:25;5.90;50.30
3770;DHT22;1900;48.890;9.190;2023-02-26T04:40:51;5.90;49.70
3770;DHT22;1900;48.890;9.190;2023-02-26T04:43:18;5.90;49.80
3770;DHT22;1900;48.890;9.190;2023-02-26T04:45:53;5.80;49.70
3770;DHT22;1900;48.890;9.190;2023-02-26T04:48:18;5.80;49.60
3770;DHT22;1900;48.890;9.190;2023-02-26T04:50:45;5.80;49.70
3770;DHT22;1900;48.890;9.190;2023-02-26T04:53:11;5.80;49.80
3770;DHT22;1900;48.890;9.190;2023-02-26T04:55:37;5.80;49.80
3770;DHT22;1900;48.890;9.190;2023-02-26T04:58:05;5.80;49.90
3770;DHT22;1900;48.890;9.190;2023-02-26T05:00:32;5.80;49.90
3770;DHT22;1900;48.890;9.190;2023-02-26T05:02:57;5.80;49.90
3770;DHT22;1900;48.890;9.190;2023-02-26T05:05:23;5.70;49.70
3770;DHT22;1900;48.890;9.190;2023-02-26T05:07:49;5.70;49.50
3770;DHT22;1900;48.890;9.190;2023-02-26T05:10:18;5.70;49.40
3770;DHT22;1900;48.890;9.190;2023-02-26T05:12:44;5.60;49.30
3770;DHT22;1900;48.890;9.190;2023-02-26T05:15:10;5.60;49.20
3770;DHT22;1900;48.890;9.190;2023-02-26T05:17:36;5.50;49.10
3770;DHT22;1900;48.890;9.190;2023-02-26T05:20:02;5.50;49.10
3770;DHT22;1900;48.890;9.190;2023-02-26T05:22:29;5.40;48.90
3770;DHT22;1900;48.890;9.190;2023-02-26T05:24:55;5.40;48.90
3770;DHT22;1900;48.890;9.190;2023-02-26T05:27:21;5.30;48.90
3770;DHT22;1900;48.890;9.190;2023-02-26T05:29:46;5.30;48.90
3770;DHT22;1900;48.890;9.190;2023-02-26T05:32:13;5.20;48.90
3770;DHT22;1900;48.890;9.190;2023-02-26T05:34:39;5.20;48.90
3770;DHT22;1900;48.890;9.190;2023-02-26T05:37:05;5.20;49.10
3770;DHT22;1900;48.890;9.190;2023-02-26T05:39:30;5.20;49.30
3770;DHT22;1900;48.890;9.190;2023-02-26T05:41:56;5.20;49.40
3770;DHT22;1900;48.890;9.190;2023-02-26T05:44:22;5.20;49.50
3770;DHT22;1900;48.890;9.190;2023-02-26T05:46:48;5.20;49.60
3770;DHT22;1900;48.890;9.190;2023-02-26T05:49:13;5.20;49.60
3770;DHT22;1900;48.890;9.190;2023-02-26T05:51:40;5.20;49.60
3770;DHT22;1900;48.890;9.190;2023-02-26T05:54:08;5.20;49.60
3770;DHT22;1900;48.890;9.190;2023-02-26T05:56:34;5.30;49.60
3770;DHT22;1900;48.890;9.190;2023-02-26T05:58:59;5.30;49.60
3770;DHT22;1900;48.890;9.190;2023-02-26T06:01:25;5.30;49.70
3770;DHT22;1900;48.890;9.190;2023-02-26T06:03:51;5.30;49.70
3770;DHT22;1900;48.890;9.190;2023-02-26T06:06:16;5.30;49.70
3770;DHT22;1900;48.890;9.190;2023-02-26T06:08:44;5.30;49.60
3770;DHT22;1900;48.890;9.190;2023-02-26T06:11:09;5.30;49.60
3770;DHT22;1900;48.890;9.190;2023-02-26T06:13:35;5.30;49.60
3770;DHT22;1900;48.890;9.190;2023-02-26T06:16:01;5.30;49.50
3770;DHT22;1900;48.890;9.190;2023-02-26T06:18:26;5.30;49.50
3770;DHT22;1900;48.890;9.190;2023-02-26T06:20:52;5.30;49.50
3770;DHT22;1900;48.890;9.190;2023-02-26T06:23:18;5.30;49.50
3770;DHT22;1900;48.890;9.190;2023-02-26T06:25:44;5.30;49.60
3770;DHT22;1900;48.890;9.190;2023-02-26T06:28:10;5.30;49.50
3770;DHT22;1900;48.890;9.190;2023-02-26T06:30:35;5.30;49.50
3770;DHT22;1900;48.890;9.190;2023-02-26T06:33:01;5.30;49.50
3770;DHT22;1900;48.890;9.190;2023-02-26T06:35:27;5.30;49.60
3770;DHT22;1900;48.890;9.190;2023-02-26T06:37:55;5.30;49.60
3770;DHT22;1900;48.890;9.190;2023-02-26T06:40:21;5.30;49.70
3770;DHT22;1900;48.890;9.190;2023-02-26T06:42:47;5.30;49.80
3770;DHT22;1900;48.890;9.190;2023-02-26T06:45:12;5.30;49.70
3770;DHT22;1900;48.890;9.190;2023-02-26T06:47:38;5.40;49.80
3770;DHT22;1900;48.890;9.190;2023-02-26T06:50:04;5.40;49.90
3770;DHT22;1900;48.890;9.190;2023-02-26T06:52:30;5.40;49.90
3770;DHT22;1900;48.890;9.190;2023-02-26T06:54:56;5.40;49.90
3770;DHT22;1900;48.890;9.190;2023-02-26T06:57:21;5.40;49.90
3770;DHT22;1900;48.890;9.190;2023-02-26T06:59:47;5.40;49.90
3770;DHT22;1900;48.890;9.190;2023-02-26T07:02:16;5.50;50.00
3770;DHT22;1900;48.890;9.190;2023-02-26T07:04:42;5.50;49.90
3770;DHT22;1900;48.890;9.190;2023-02-26T07:07:07;5.50;50.00
3770;DHT22;1900;48.890;9.190;2023-02-26T07:09:33;5.50;50.00
3770;DHT22;1900;48.890;9.190;2023-02-26T07:11:58;5.60;50.00
3770;DHT22;1900;48.890;9.190;2023-02-26T07:14:24;5.60;50.00
3770;DHT22;1900;48.890;9.190;2023-02-26T07:16:50;5.60;50.00
3770;DHT22;1900;48.890;9.190;2023-02-26T07:19:15;5.60;50.00
3770;DHT22;1900;48.890;9.190;2023-02-26T07:21:41;5.60;50.00
3770;DHT22;1900;48.890;9.190;2023-02-26T07:24:07;5.60;49.90
3770;DHT22;1900;48.890;9.190;2023-02-26T07:26:33;5.60;49.90
3770;DHT22;1900;48.890;9.190;2023-02-26T07:28:59;5.60;49.80
3770;DHT22;1900;48.890;9.190;2023-02-26T07:31:24;5.60;49.80
3770;DHT22;1900;48.890;9.190;2023-02-26T07:33:50;5.60;50.00
3770;DHT22;1900;48.890;9.190;2023-02-26T07:36:16;5.70;50.10
3770;DHT22;1900;48.890;9.190;2023-02-26T07:38:41;5.70;50.20
3770;DHT22;1900;48.890;9.190;2023-02-26T07:41:07;5.70;50.10
3770;DHT22;1900;48.890;9.190;2023-02-26T07:43:33;5.70;50.00
3770;DHT22;1900;48.890;9.190;2023-02-26T07:45:58;5.70;50.10
3770;DHT22;1900;48.890;9.190;2023-02-26T07:48:24;5.70;50.00
3770;DHT22;1900;48.890;9.190;2023-02-26T07:50:54;5.70;50.10
3770;DHT22;1900;48.890;9.190;2023-02-26T07:53:20;5.70;50.20
3770;DHT22;1900;48.890;9.190;2023-02-26T07:55:46;5.80;51.00
3770;DHT22;1900;48.890;9.190;2023-02-26T07:58:12;5.80;50.40
3770;DHT22;1900;48.890;9.190;2023-02-26T08:00:37;5.90;50.40
3770;DHT22;1900;48.890;9.190;2023-02-26T08:03:03;5.90;50.40
3770;DHT22;1900;48.890;9.190;2023-02-26T08:05:29;5.90;50.30
3770;DHT22;1900;48.890;9.190;2023-02-26T08:07:54;5.90;50.20
3770;DHT22;1900;48.890;9.190;2023-02-26T08:10:20;5.90;50.20
3770;DHT22;1900;48.890;9.190;2023-02-26T08:12:46;5.90;50.30
3770;DHT22;1900;48.890;9.190;2023-02-26T08:15:11;5.90;50.40
3770;DHT22;1900;48.890;9.190;2023-02-26T08:17:39;5.90;50.40
3770;DHT22;1900;48.890;9.190;2023-02-26T08:20:06;6.00;50.50
3770;DHT22;1900;48.890;9.190;2023-02-26T08:22:32;6.00;50.60
3770;DHT22;1900;48.890;9.190;2023-02-26T08:24:58;6.00;50.60
3770;DHT22;1900;48.890;9.190;2023-02-26T08:27:24;6.10;50.60
3770;DHT22;1900;48.890;9.190;2023-02-26T08:29:50;6.10;50.60
3770;DHT22;1900;48.890;9.190;2023-02-26T08:32:17;6.10;50.70
3770;DHT22;1900;48.890;9.190;2023-02-26T08:34:44;6.10;50.60
3770;DHT22;1900;48.890;9.190;2023-02-26T08:37:11;6.20;50.70
3770;DHT22;1900;48.890;9.190;2023-02-26T08:39:38;6.20;50.80
3770;DHT22;1900;48.890;9.190;2023-02-26T08:42:08;6.30;50.80
3770;DHT22;1900;48.890;9.190;2023-02-26T08:44:34;6.30;50.80
3770;DHT22;1900;48.890;9.190;2023-02-26T08:47:03;6.30;50.70
3770;DHT22;1900;48.890;9.190;2023-02-26T08:49:28;6.40;50.80
3770;DHT22;1900;48.890;9.190;2023-02-26T08:51:54;6.40;50.90
3770;DHT22;1900;48.890;9.190;2023-02-26T08:54:19;6.40;50.90
3770;DHT22;1900;48.890;9.190;2023-02-26T08:56:45;6.50;51.00
3770;DHT22;1900;48.890;9.190;2023-02-26T08:59:11;6.50;51.20
3770;DHT22;1900;48.890;9.190;2023-02-26T09:01:38;6.60;51.30
3770;DHT22;1900;48.890;9.190;2023-02-26T09:04:03;6.60;51.30
3770;DHT22;1900;48.890;9.190;2023-02-26T09:06:29;6.60;51.20
3770;DHT22;1900;48.890;9.190;2023-02-26T09:08:55;6.70;51.20
3770;DHT22;1900;48.890;9.190;2023-02-26T09:11:20;6.70;51.00
3770;DHT22;1900;48.890;9.190;2023-02-26T09:13:46;6.60;50.80
3770;DHT22;1900;48.890;9.190;2023-02-26T09:16:12;6.60;50.80
3770;DHT22;1900;48.890;9.190;2023-02-26T09:18:38;6.60;50.80
3770;DHT22;1900;48.890;9.190;2023-02-26T09:21:04;6.60;50.90
3770;DHT22;1900;48.890;9.190;2023-02-26T09:23:30;6.60;50.80
3770;DHT22;1900;48.890;9.190;2023-02-26T09:25:56;6.60;50.90
3770;DHT22;1900;48.890;9.190;2023-02-26T09:28:23;6.60;50.80
3770;DHT22;1900;48.890;9.190;2023-02-26T09:30:53;6.60;50.80
3770;DHT22;1900;48.890;9.190;2023-02-26T09:33:20;6.60;50.80
3770;DHT22;1900;48.890;9.190;2023-02-26T09:35:49;6.50;50.70
3770;DHT22;1900;48.890;9.190;2023-02-26T09:38:15;6.50;50.80
3770;DHT22;1900;48.890;9.190;2023-02-26T09:55:04;6.60;51.10
3770;DHT22;1900;48.890;9.190;2023-02-26T09:57:33;6.50;51.00
3770;DHT22;1900;48.890;9.190;2023-02-26T10:00:00;6.50;50.90
3770;DHT22;1900;48.890;9.190;2023-02-26T10:07:53;6.50;51.00
3770;DHT22;1900;48.890;9.190;2023-02-26T10:10:47;6.50;51.00
3770;DHT22;1900;48.890;9.190;2023-02-26T10:13:27;6.50;51.00
3770;DHT22;1900;48.890;9.190;2023-02-26T10:16:03;6.50;51.00
3770;DHT22;1900;48.890;9.190;2023-02-26T10:18:34;6.50;51.10
3770;DHT22;1900;48.890;9.190;2023-02-26T10:21:22;6.50;51.20
3770;DHT22;1900;48.890;9.190;2023-02-26T10:23:56;6.50;51.10
3770;DHT22;1900;48.890;9.190;2023-02-26T10:34:37;6.60;51.80
3770;DHT22;1900;48.890;9.190;2023-02-26T10:37:42;6.60;51.20
3770;DHT22;1900;48.890;9.190;2023-02-26T10:42:58;6.60;51.20
3770;DHT22;1900;48.890;9.190;2023-02-26T10:51:00;6.70;51.40
3770;DHT22;1900;48.890;9.190;2023-02-26T10:53:30;6.70;51.40
3770;DHT22;1900;48.890;9.190;2023-02-26T10:56:07;6.70;51.40
3770;DHT22;1900;48.890;9.190;2023-02-26T10:58:34;6.70;51.40
3770;DHT22;1900;48.890;9.190;2023-02-26T11:01:01;6.80;51.40
3770;DHT22;1900;48.890;9.190;2023-02-26T11:03:33;6.80;51.40
3770;DHT22;1900;48.890;9.190;2023-02-26T11:06:02;6.80;51.40
3770;DHT22;1900;48.890;9.190;2023-02-26T11:08:55;6.80;51.50
3770;DHT22;1900;48.890;9.190;2023-02-26T11:11:45;6.80;52.00
3770;DHT22;1900;48.890;9.190;2023-02-26T11:14:11;6.90;51.40
3770;DHT22;1900;48.890;9.190;2023-02-26T11:16:45;6.90;51.40
3770;DHT22;1900;48.890;9.190;2023-02-26T11:19:14;6.90;51.40
3770;DHT22;1900;48.890;9.190;2023-02-26T11:21:40;6.90;51.40
3770;DHT22;1900;48.890;9.190;2023-02-26T11:24:41;6.90;51.40
3770;DHT22;1900;48.890;9.190;2023-02-26T11:27:21;7.00;51.60
3770;DHT22;1900;48.890;9.190;2023-02-26T11:29:54;7.00;51.70
3770;DHT22;1900;48.890;9.190;2023-02-26T11:32:22;7.10;51.90
3770;DHT22;1900;48.890;9.190;2023-02-26T11:34:53;7.10;51.80
3770;DHT22;1900;48.890;9.190;2023-02-26T11:37:22;7.10;51.70
3770;DHT22;1900;48.890;9.190;2023-02-26T11:39:56;7.20;51.70
3770;DHT22;1900;48.890;9.190;2023-02-26T11:42:22;7.20;51.70
3770;DHT22;1900;48.890;9.190;2023-02-26T11:44:50;7.20;51.80
3770;DHT22;1900;48.890;9.190;2023-02-26T11:47:25;7.30;51.90
3770;DHT22;1900;48.890;9.190;2023-02-26T11:49:54;7.30;51.90
3770;DHT22;1900;48.890;9.190;2023-02-26T11:52:35;7.30;51.80
3770;DHT22;1900;48.890;9.190;2023-02-26T11:55:26;7.40;51.90
3770;DHT22;1900;48.890;9.190;2023-02-26T11:57:54;7.40;52.10
3770;DHT22;1900;48.890;9.190;2023-02-26T12:00:30;7.50;52.30
3770;DHT22;1900;48.890;9.190;2023-02-26T12:03:00;7.50;52.30
3770;DHT22;1900;48.890;9.190;2023-02-26T12:05:29;7.60;52.20
3770;DHT22;1900;48.890;9.190;2023-02-26T12:07:56;7.60;52.20
3770;DHT22;1900;48.890;9.190;2023-02-26T12:13:23;7.70;52.30
3770;DHT22;1900;48.890;9.190;2023-02-26T12:16:15;7.70;52.20
3770;DHT22;1900;48.890;9.190;2023-02-26T12:21:44;7.70;52.10
3770;DHT22;1900;48.890;9.190;2023-02-26T12:24:25;7.80;52.70
3770;DHT22;1900;48.890;9.190;2023-02-26T12:55:22;7.60;51.40
3770;DHT22;1900;48.890;9.190;2023-02-26T12:57:33;7.60;51.30
3770;DHT22;1900;48.890;9.190;2023-02-26T13:18:51;7.50;51.60
3770;DHT22;1900;48.890;9.190;2023-02-26T13:21:34;7.50;51.70
3770;DHT22;1900;48.890;9.190;2023-02-26T13:26:41;7.60;51.70
3770;DHT22;1900;48.890;9.190;2023-02-26T13:31:49;7.60;51.70
3770;DHT22;1900;48.890;9.190;2023-02-26T13:37:01;7.70;51.80
3770;DHT22;1900;48.890;9.190;2023-02-26T13:39:42;7.70;51.80
3770;DHT22;1900;48.890;9.190;2023-02-26T13:42:40;7.70;51.60
3770;DHT22;1900;48.890;9.190;2023-02-26T13:45:30;7.70;51.70
3770;DHT22;1900;48.890;9.190;2023-02-26T13:51:38;7.70;51.50
3770;DHT22;1900;48.890;9.190;2023-02-26T13:59:23;7.60;51.30
3770;DHT22;1900;48.890;9.190;2023-02-26T14:01:54;7.60;51.30
3770;DHT22;1900;48.890;9.190;2023-02-26T14:04:24;7.60;51.30
3770;DHT22;1900;48.890;9.190;2023-02-26T14:07:12;7.70;51.60
3770;DHT22;1900;48.890;9.190;2023-02-26T14:10:02;7.80;52.30
3770;DHT22;1900;48.890;9.190;2023-02-26T14:12:37;8.00;53.20
3770;DHT22;1900;48.890;9.190;2023-02-26T14:17:49;8.30;53.50
3770;DHT22;1900;48.890;9.190;2023-02-26T14:23:18;8.70;54.00
3770;DHT22;1900;48.890;9.190;2023-02-26T14:25:50;8.80;53.70
3770;DHT22;1900;48.890;9.190;2023-02-26T14:30:46;8.90;53.10
3770;DHT22;1900;48.890;9.190;2023-02-26T14:33:16;8.90;52.70
3770;DHT22;1900;48.890;9.190;2023-02-26T14:35:44;9.00;52.70
3770;DHT22;1900;48.890;9.190;2023-02-26T14:38:17;9.00;52.50
3770;DHT22;1900;48.890;9.190;2023-02-26T14:40:49;9.00;52.30
3770;DHT22;1900;48.890;9.190;2023-02-26T14:43:49;9.00;52.20
3770;DHT22;1900;48.890;9.190;2023-02-26T14:46:18;8.90;52.50
3770;DHT22;1900;48.890;9.190;2023-02-26T14:48:45;8.90;51.90
3770;DHT22;1900;48.890;9.190;2023-02-26T14:51:33;8.90;51.90
3770;DHT22;1900;48.890;9.190;2023-02-26T14:54:23;8.90;51.60
3770;DHT22;1900;48.890;9.190;2023-02-26T14:57:03;8.80;51.40
3770;DHT22;1900;48.890;9.190;2023-02-26T15:11:14;8.60;51.40
3770;DHT22;1900;48.890;9.190;2023-02-26T15:24:35;8.40;51.20
3770;DHT22;1900;48.890;9.190;2023-02-26T15:27:03;8.40;51.00
3770;DHT22;1900;48.890;9.190;2023-02-26T15:29:34;8.40;51.20
3770;DHT22;1900;48.890;9.190;2023-02-26T15:32:14;8.50;51.70
3770;DHT22;1900;48.890;9.190;2023-02-26T15:35:00;8.60;52.10
3770;DHT22;1900;48.890;9.190;2023-02-26T15:37:29;8.80;52.30
3770;DHT22;1900;48.890;9.190;2023-02-26T15:39:58;8.90;52.20
3770;DHT22;1900;48.890;9.190;2023-02-26T15:42:28;9.00;52.20
3770;DHT22;1900;48.890;9.190;2023-02-26T15:44:59;9.00;51.90
3770;DHT22;1900;48.890;9.190;2023-02-26T15:47:27;9.00;51.80
3770;DHT22;1900;48.890;9.190;2023-02-26T15:49:54;9.00;51.80
3770;DHT22;1900;48.890;9.190;2023-02-26T15:52:22;9.00;51.60
3770;DHT22;1900;48.890;9.190;2023-02-26T15:55:02;9.00;51.20
3770;DHT22;1900;48.890;9.190;2023-02-26T15:57:29;8.90;50.80
3770;DHT22;1900;48.890;9.190;2023-02-26T16:00:13;8.80;50.70
3770;DHT22;1900;48.890;9.190;2023-02-26T16:02:41;8.70;50.80
3770;DHT22;1900;48.890;9.190;2023-02-26T16:05:09;8.70;50.80
3770;DHT22;1900;48.890;9.190;2023-02-26T16:07:35;8.60;50.80
3770;DHT22;1900;48.890;9.190;2023-02-26T16:10:13;8.60;50.80
3770;DHT22;1900;48.890;9.190;2023-02-26T16:12:41;8.50;50.60
3770;DHT22;1900;48.890;9.190;2023-02-26T16:15:15;8.50;50.70
3770;DHT22;1900;48.890;9.190;2023-02-26T16:17:43;8.40;50.80
3770;DHT22;1900;48.890;9.190;2023-02-26T16:20:14;8.40;50.80
3770;DHT22;1900;48.890;9.190;2023-02-26T16:22:46;8.40;50.70
3770;DHT22;1900;48.890;9.190;2023-02-26T16:27:57;8.30;50.10
3770;DHT22;1900;48.890;9.190;2023-02-26T16:30:33;8.20;50.00
3770;DHT22;1900;48.890;9.190;2023-02-26T16:33:01;8.20;50.00
3770;DHT22;1900;48.890;9.190;2023-02-26T16:35:36;8.10;49.90
3770;DHT22;1900;48.890;9.190;2023-02-26T16:38:23;8.00;49.80
3770;DHT22;1900;48.890;9.190;2023-02-26T16:40:58;8.00;49.90
3770;DHT22;1900;48.890;9.190;2023-02-26T16:46:03;7.90;50.10
3770;DHT22;1900;48.890;9.190;2023-02-26T16:48:56;7.90;50.10
3770;DHT22;1900;48.890;9.190;2023-02-26T16:51:22;7.90;50.10
3770;DHT22;1900;48.890;9.190;2023-02-26T16:53:54;7.90;50.10
3770;DHT22;1900;48.890;9.190;2023-02-26T16:56:28;7.80;50.00
3770;DHT22;1900;48.890;9.190;2023-02-26T16:59:19;7.80;50.00
3770;DHT22;1900;48.890;9.190;2023-02-26T17:01:51;7.80;50.10
3770;DHT22;1900;48.890;9.190;2023-02-26T17:04:19;7.80;50.20
3770;DHT22;1900;48.890;9.190;2023-02-26T17:06:47;7.80;50.30
3770;DHT22;1900;48.890;9.190;2023-02-26T17:15:19;7.80;50.40
3770;DHT22;1900;48.890;9.190;2023-02-26T17:17:46;7.80;50.30
3770;DHT22;1900;48.890;9.190;2023-02-26T17:20:12;7.80;50.30
3770;DHT22;1900;48.890;9.190;2023-02-26T17:22:39;7.80;50.20
3770;DHT22;1900;48.890;9.190;2023-02-26T17:25:12;7.80;50.20
3770;DHT22;1900;48.890;9.190;2023-02-26T17:27:38;7.80;50.00
3770;DHT22;1900;48.890;9.190;2023-02-26T17:30:06;7.70;50.00
3770;DHT22;1900;48.890;9.190;2023-02-26T17:32:36;7.70;50.00
3770;DHT22;1900;48.890;9.190;2023-02-26T17:35:01;7.70;50.00
3770;DHT22;1900;48.890;9.190;2023-02-26T17:37:32;7.70;50.00
3770;DHT22;1900;48.890;9.190;2023-02-26T17:39:58;7.70;50.10
3770;DHT22;1900;48.890;9.190;2023-02-26T17:42:24;7.60;50.00
3770;DHT22;1900;48.890;9.190;2023-02-26T17:44:50;7.60;50.10
3770;DHT22;1900;48.890;9.190;2023-02-26T17:47:22;7.60;50.00
3770;DHT22;1900;48.890;9.190;2023-02-26T17:49:48;7.60;49.90
3770;DHT22;1900;48.890;9.190;2023-02-26T17:52:14;7.60;49.90
3770;DHT22;1900;48.890;9.190;2023-02-26T17:54:41;7.50;49.80
3770;DHT22;1900;48.890;9.190;2023-02-26T17:57:18;7.50;49.70
3770;DHT22;1900;48.890;9.190;2023-02-26T17:59:44;7.50;49.80
3770;DHT22;1900;48.890;9.190;2023-02-26T18:02:20;7.50;49.80
3770;DHT22;1900;48.890;9.190;2023-02-26T18:04:47;7.50;49.80
3770;DHT22;1900;48.890;9.190;2023-02-26T18:07:16;7.40;49.70
3770;DHT22;1900;48.890;9.190;2023-02-26T18:09:43;7.40;49.70
3770;DHT22;1900;48.890;9.190;2023-02-26T18:12:20;7.40;49.70
3770;DHT22;1900;48.890;9.190;2023-02-26T18:14:47;7.40;49.80
3770;DHT22;1900;48.890;9.190;2023-02-26T18:17:16;7.40;49.80
3770;DHT22;1900;48.890;9.190;2023-02-26T18:19:42;7.40;49.70
3770;DHT22;1900;48.890;9.190;2023-02-26T18:22:12;7.40;49.80
3770;DHT22;1900;48.890;9.190;2023-02-26T18:24:38;7.40;49.80
3770;DHT22;1900;48.890;9.190;2023-02-26T18:27:05;7.40;49.90
3770;DHT22;1900;48.890;9.190;2023-02-26T18:29:31;7.40;49.80
3770;DHT22;1900;48.890;9.190;2023-02-26T18:31:57;7.40;49.80
3770;DHT22;1900;48.890;9.190;2023-02-26T18:34:25;7.40;49.80
3770;DHT22;1900;48.890;9.190;2023-02-26T18:36:50;7.30;49.60
3770;DHT22;1900;48.890;9.190;2023-02-26T18:39:16;7.30;49.50
3770;DHT22;1900;48.890;9.190;2023-02-26T18:41:45;7.30;49.50
3770;DHT22;1900;48.890;9.190;2023-02-26T18:44:11;7.30;49.50
3770;DHT22;1900;48.890;9.190;2023-02-26T18:46:37;7.30;49.60
3770;DHT22;1900;48.890;9.190;2023-02-26T18:49:09;7.30;49.60
3770;DHT22;1900;48.890;9.190;2023-02-26T18:51:39;7.20;49.60
3770;DHT22;1900;48.890;9.190;2023-02-26T18:54:05;7.20;49.50
3770;DHT22;1900;48.890;9.190;2023-02-26T18:56:30;7.20;49.50
3770;DHT22;1900;48.890;9.190;2023-02-26T18:58:56;7.20;49.30
3770;DHT22;1900;48.890;9.190;2023-02-26T19:01:22;7.20;49.30
3770;DHT22;1900;48.890;9.190;2023-02-26T19:03:48;7.10;49.20
3770;DHT22;1900;48.890;9.190;2023-02-26T19:06:14;7.10;49.20
3770;DHT22;1900;48.890;9.190;2023-02-26T19:08:40;7.10;49.20
3770;DHT22;1900;48.890;9.190;2023-02-26T19:11:05;7.10;49.30
3770;DHT22;1900;48.890;9.190;2023-02-26T19:13:31;7.00;49.20
3770;DHT22;1900;48.890;9.190;2023-02-26T19:15:57;7.00;49.20
3770;DHT22;1900;48.890;9.190;2023-02-26T19:18:23;7.00;49.20
3770;DHT22;1900;48.890;9.190;2023-02-26T19:20:49;7.00;49.30
3770;DHT22;1900;48.890;9.190;2023-02-26T19:23:15;7.00;49.40
3770;DHT22;1900;48.890;9.190;2023-02-26T19:25:41;7.00;49.40
3770;DHT22;1900;48.890;9.190;2023-02-26T19:28:06;7.00;49.50
3770;DHT22;1900;48.890;9.190;2023-02-26T19:30:32;7.00;49.50
3770;DHT22;1900;48.890;9.190;2023-02-26T19:32:59;7.00;49.40
3770;DHT22;1900;48.890;9.190;2023-02-26T19:35:24;7.00;49.40
3770;DHT22;1900;48.890;9.190;2023-02-26T19:37:54;7.00;49.40
3770;DHT22;1900;48.890;9.190;2023-02-26T19:40:20;7.00;50.00
3770;DHT22;1900;48.890;9.190;2023-02-26T19:42:46;7.00;49.40
3770;DHT22;1900;48.890;9.190;2023-02-26T19:45:13;7.00;49.40
3770;DHT22;1900;48.890;9.190;2023-02-26T19:47:39;7.00;49.40
3770;DHT22;1900;48.890;9.190;2023-02-26T19:50:06;7.00;49.30